sensor_id;sensor_type;location;lat;lon;timestamp;pressure;altitude;pressure_sealevel;temperature;humidity
10135;BME280;5107;48.850;8.924;2022-10-15T00:01:06;96162.56;;;13.53;100.00
10135;BME280;5107;48.850;8.924;2022-10-15T00:03:38;96160.31;;;13.56;100.00
10135;BME280;5107;48.850;8.924;2022-10-15T00:06:08;96158.47;;;13.57;100.00
10135;BME280;5107;48.850;8.924;2022-10-15T00:08:36;96157.06;;;13.61;100.00
10135;BME280;5107;48.850;8.924;2022-10-15T00:11:06;96160.34;;;13.63;100.00
10135;BME280;5107;48.850;8.924;2022-10-15T00:13:34;96151.97;;;13.66;100.00
10135;BME280;5107;48.850;8.924;2022-10-15T00:16:01;96155.25;;;13.68;100.00
10135;BME280;5107;48.850;8.924;2022-10-15T00:18:29;96154.63;;;13.66;100.00
10135;BME280;5107;48.850;8.924;2022-10-15T00:20:57;96148.31;;;13.67;100.00
10135;BME280;5107;48.850;8.924;2022-10-15T00:23:24;96148.31;;;13.67;100.00
10135;BME280;5107;48.850;8.924;2022-10-15T00:26:01;96142.66;;;13.70;100.00
10135;BME280;5107;48.850;8.924;2022-10-15T00:28:28;96161.16;;;13.70;100.00
10135;BME280;5107;48.850;8.924;2022-10-15T00:31:00;96149.34;;;13.73;100.00
10135;BME280;5107;48.850;8.924;2022-10-15T00:33:28;96156.06;;;13.75;100.00
10135;BME280;5107;48.850;8.924;2022-10-15T00:36:06;96148.13;;;13.75;100.00
10135;BME280;5107;48.850;8.924;2022-10-15T00:38:34;96153.84;;;13.79;100.00
10135;BME280;5107;48.850;8.924;2022-10-15T00:41:03;96154.66;;;13.79;100.00
10135;BME280;5107;48.850;8.924;2022-10-15T00:43:36;96152.81;;;13.80;100.00
10135;BME280;5107;48.850;8.924;2022-10-15T00:46:04;96153.63;;;13.80;100.00
10135;BME280;5107;48.850;8.924;2022-10-15T00:48:32;96148.94;;;13.82;100.00
10135;BME280;5107;48.850;8.924;2022-10-15T00:51:00;96149.75;;;13.83;100.00
10135;BME280;5107;48.850;8.924;2022-10-15T00:53:30;96144.66;;;13.81;100.00
10135;BME280;5107;48.850;8.924;2022-10-15T00:55:58;96145.06;;;13.85;100.00
10135;BME280;5107;48.850;8.924;2022-10-15T00:58:29;96145.69;;;13.87;100.00
10135;BME280;5107;48.850;8.924;2022-10-15T01:00:57;96142.03;;;13.88;100.00
10135;BME280;5107;48.850;8.924;2022-10-15T01:03:25;96134.09;;;13.88;100.00
10135;BME280;5107;48.850;8.924;2022-10-15T01:05:53;96140.19;;;13.88;100.00
10135;BME280;5107;48.850;8.924;2022-10-15T01:08:21;96138.38;;;13.89;100.00
10135;BME280;5107;48.850;8.924;2022-10-15T01:10:55;96140.78;;;13.90;100.00
10135;BME280;5107;48.850;8.924;2022-10-15T01:13:34;96137.94;;;13.92;100.00
10135;BME280;5107;48.850;8.924;2022-10-15T01:16:10;96138.56;;;13.94;100.00
10135;BME280;5107;48.850;8.924;2022-10-15T01:18:46;96131.63;;;13.93;100.00
10135;BME280;5107;48.850;8.924;2022-10-15T01:21:20;96124.53;;;13.93;100.00
10135;BME280;5107;48.850;8.924;2022-10-15T01:27:28;96132.47;;;13.93;100.00
10135;BME280;5107;48.850;8.924;2022-10-15T01:30:28;96130.63;;;13.94;100.00
10135;BME280;5107;48.850;8.924;2022-10-15T01:33:13;96126.16;;;13.94;100.00
10135;BME280;5107;48.850;8.924;2022-10-15T01:35:47;96124.31;;;13.95;100.00
10135;BME280;5107;48.850;8.924;2022-10-15T01:38:27;96123.31;;;13.96;100.00
10135;BME280;5107;48.850;8.924;2022-10-15T01:41:01;96120.66;;;13.96;100.00
10135;BME280;5107;48.850;8.924;2022-10-15T01:43:35;96123.09;;;13.97;100.00
10135;BME280;5107;48.850;8.924;2022-10-15T01:46:39;96123.50;;;14.01;100.00
10135;BME280;5107;48.850;8.924;2022-10-15T01:49:16;96118.63;;;14.04;100.00
10135;BME280;5107;48.850;8.924;2022-10-15T01:51:47;96114.97;;;14.05;100.00
10135;BME280;5107;48.850;8.924;2022-10-15T01:54:17;96103.94;;;14.09;100.00
10135;BME280;5107;48.850;8.924;2022-10-15T01:56:47;96108.41;;;14.08;100.00
10135;BME280;5107;48.850;8.924;2022-10-15T01:59:21;96107.19;;;14.11;100.00
10135;BME280;5107;48.850;8.924;2022-10-15T02:01:49;96113.09;;;14.13;100.00
10135;BME280;5107;48.850;8.924;2022-10-15T02:04:19;96116.13;;;14.16;100.00
10135;BME280;5107;48.850;8.924;2022-10-15T02:06:52;96116.34;;;14.21;100.00
10135;BME280;5107;48.850;8.924;2022-10-15T02:09:34;96117.34;;;14.27;100.00
10135;BME280;5107;48.850;8.924;2022-10-15T02:12:15;96123.25;;;14.29;100.00
10135;BME280;5107;48.850;8.924;2022-10-15T02:14:54;96117.75;;;14.30;100.00
10135;BME280;5107;48.850;8.924;2022-10-15T02:17:34;96120.16;;;14.32;100.00
10135;BME280;5107;48.850;8.924;2022-10-15T02:20:11;96121.22;;;14.31;100.00
10135;BME280;5107;48.850;8.924;2022-10-15T02:22:47;96121.78;;;14.33;100.00
10135;BME280;5107;48.850;8.924;2022-10-15T02:25:20;96123.63;;;14.32;100.00
10135;BME280;5107;48.850;8.924;2022-10-15T02:27:50;96124.44;;;14.33;100.00
10135;BME280;5107;48.850;8.924;2022-10-15T02:30:48;96123.44;;;14.34;100.00
10135;BME280;5107;48.850;8.924;2022-10-15T02:33:19;96122.63;;;14.33;100.00
10135;BME280;5107;48.850;8.924;2022-10-15T02:35:48;96127.91;;;14.33;100.00
10135;BME280;5107;48.850;8.924;2022-10-15T02:38:20;96135.84;;;14.33;100.00
10135;BME280;5107;48.850;8.924;2022-10-15T02:40:49;96136.66;;;14.34;100.00
10135;BME280;5107;48.850;8.924;2022-10-15T02:43:20;96135.03;;;14.33;100.00
10135;BME280;5107;48.850;8.924;2022-10-15T02:45:49;96129.75;;;14.33;100.00
10135;BME280;5107;48.850;8.924;2022-10-15T02:48:18;96127.69;;;14.35;100.00
10135;BME280;5107;48.850;8.924;2022-10-15T02:50:47;96126.88;;;14.34;100.00
10135;BME280;5107;48.850;8.924;2022-10-15T02:53:14;96126.06;;;14.34;100.00
10135;BME280;5107;48.850;8.924;2022-10-15T02:55:42;96132.19;;;14.34;100.00
10135;BME280;5107;48.850;8.924;2022-10-15T02:58:11;96137.47;;;14.34;100.00
10135;BME280;5107;48.850;8.924;2022-10-15T03:00:38;96132.59;;;14.38;100.00
10135;BME280;5107;48.850;8.924;2022-10-15T03:03:05;96135.84;;;14.40;100.00
10135;BME280;5107;48.850;8.924;2022-10-15T03:05:34;96142.56;;;14.42;100.00
10135;BME280;5107;48.850;8.924;2022-10-15T03:08:01;96133.63;;;14.43;100.00
10135;BME280;5107;48.850;8.924;2022-10-15T03:10:29;96136.69;;;14.47;100.00
10135;BME280;5107;48.850;8.924;2022-10-15T03:13:01;96132.78;;;14.50;100.00
10135;BME280;5107;48.850;8.924;2022-10-15T03:15:30;96138.06;;;14.50;100.00
10135;BME280;5107;48.850;8.924;2022-10-15T03:17:57;96138.28;;;14.48;100.00
10135;BME280;5107;48.850;8.924;2022-10-15T03:20:24;96141.53;;;14.50;100.00
10135;BME280;5107;48.850;8.924;2022-10-15T03:22:52;96132.78;;;14.50;100.00
10135;BME280;5107;48.850;8.924;2022-10-15T03:25:19;96141.53;;;14.50;100.00
10135;BME280;5107;48.850;8.924;2022-10-15T03:27:50;96145.59;;;14.53;100.00
10135;BME280;5107;48.850;8.924;2022-10-15T03:30:24;96140.69;;;14.56;100.00
10135;BME280;5107;48.850;8.924;2022-10-15T03:32:51;96139.09;;;14.55;100.00
10135;BME280;5107;48.850;8.924;2022-10-15T03:35:18;96149.25;;;14.58;100.00
10135;BME280;5107;48.850;8.924;2022-10-15T03:37:45;96153.31;;;14.61;100.00
10135;BME280;5107;48.850;8.924;2022-10-15T03:40:14;96156.97;;;14.66;100.00
10135;BME280;5107;48.850;8.924;2022-10-15T03:42:43;96150.66;;;14.67;100.00
10135;BME280;5107;48.850;8.924;2022-10-15T03:45:11;96159.38;;;14.74;100.00
10135;BME280;5107;48.850;8.924;2022-10-15T03:47:38;96157.75;;;14.80;100.00
10135;BME280;5107;48.850;8.924;2022-10-15T03:50:07;96159.97;;;14.83;100.00
10135;BME280;5107;48.850;8.924;2022-10-15T03:52:35;96165.25;;;14.83;100.00
10135;BME280;5107;48.850;8.924;2022-10-15T03:55:04;96166.03;;;14.90;100.00
10135;BME280;5107;48.850;8.924;2022-10-15T03:57:33;96173.78;;;14.92;100.00
10135;BME280;5107;48.850;8.924;2022-10-15T04:00:06;96162.16;;;14.93;100.00
10135;BME280;5107;48.850;8.924;2022-10-15T04:02:39;96165.63;;;14.93;100.00
10135;BME280;5107;48.850;8.924;2022-10-15T04:05:18;96163.97;;;14.99;100.00
10135;BME280;5107;48.850;8.924;2022-10-15T04:07:51;96171.72;;;15.00;100.00
10135;BME280;5107;48.850;8.924;2022-10-15T04:10:20;96167.44;;;14.99;100.00
10135;BME280;5107;48.850;8.924;2022-10-15T04:12:48;96159.91;;;14.96;100.00
10135;BME280;5107;48.850;8.924;2022-10-15T04:15:18;96161.16;;;14.94;100.00
10135;BME280;5107;48.850;8.924;2022-10-15T04:17:53;96170.53;;;14.90;100.00
10135;BME280;5107;48.850;8.924;2022-10-15T04:20:22;96162.00;;;14.88;100.00
10135;BME280;5107;48.850;8.924;2022-10-15T04:22:49;96168.53;;;14.85;100.00
10135;BME280;5107;48.850;8.924;2022-10-15T04:25:18;96177.28;;;14.86;100.00
10135;BME280;5107;48.850;8.924;2022-10-15T04:27:45;96181.75;;;14.85;100.00
10135;BME280;5107;48.850;8.924;2022-10-15T04:30:17;96187.25;;;14.84;100.00
10135;BME280;5107;48.850;8.924;2022-10-15T04:32:52;96182.56;;;14.86;100.00
10135;BME280;5107;48.850;8.924;2022-10-15T04:35:20;96186.41;;;14.90;100.00
10135;BME280;5107;48.850;8.924;2022-10-15T04:38:12;96177.44;;;14.91;100.00
10135;BME280;5107;48.850;8.924;2022-10-15T04:41:01;96186.81;;;14.93;100.00
10135;BME280;5107;48.850;8.924;2022-10-15T04:43:41;96186.41;;;14.90;100.00
10135;BME280;5107;48.850;8.924;2022-10-15T04:46:12;96191.09;;;14.94;100.00
10135;BME280;5107;48.850;8.924;2022-10-15T04:48:39;96191.31;;;14.93;100.00
10135;BME280;5107;48.850;8.924;2022-10-15T04:51:12;96196.19;;;14.96;100.00
10135;BME280;5107;48.850;8.924;2022-10-15T04:53:58;96199.47;;;14.98;100.00
10135;BME280;5107;48.850;8.924;2022-10-15T04:56:26;96194.13;;;15.04;99.60
10135;BME280;5107;48.850;8.924;2022-10-15T04:58:54;96190.88;;;15.02;99.68
10135;BME280;5107;48.850;8.924;2022-10-15T05:01:25;96196.97;;;15.03;99.70
10135;BME280;5107;48.850;8.924;2022-10-15T05:04:03;96207.19;;;14.99;99.99
10135;BME280;5107;48.850;8.924;2022-10-15T05:06:32;96209.25;;;14.97;100.00
10135;BME280;5107;48.850;8.924;2022-10-15T05:09:13;96212.09;;;14.96;100.00
10135;BME280;5107;48.850;8.924;2022-10-15T05:11:46;96221.28;;;14.93;100.00
10135;BME280;5107;48.850;8.924;2022-10-15T05:14:13;96224.13;;;14.92;100.00
10135;BME280;5107;48.850;8.924;2022-10-15T05:16:42;96219.84;;;14.91;100.00
10135;BME280;5107;48.850;8.924;2022-10-15T05:19:10;96224.31;;;14.90;100.00
10135;BME280;5107;48.850;8.924;2022-10-15T05:21:40;96222.94;;;14.88;100.00
10135;BME280;5107;48.850;8.924;2022-10-15T05:24:14;96230.06;;;14.87;100.00
10135;BME280;5107;48.850;8.924;2022-10-15T05:26:53;96225.78;;;14.86;100.00
10135;BME280;5107;48.850;8.924;2022-10-15T05:29:21;96232.91;;;14.86;100.00
10135;BME280;5107;48.850;8.924;2022-10-15T05:31:50;96228.84;;;14.83;100.00
10135;BME280;5107;48.850;8.924;2022-10-15T05:34:22;96235.38;;;14.80;100.00
10135;BME280;5107;48.850;8.924;2022-10-15T05:37:11;96235.78;;;14.77;100.00
10135;BME280;5107;48.850;8.924;2022-10-15T05:39:40;96235.78;;;14.77;100.00
10135;BME280;5107;48.850;8.924;2022-10-15T05:42:08;96240.69;;;14.80;100.00
10135;BME280;5107;48.850;8.924;2022-10-15T05:44:45;96241.69;;;14.79;100.00
10135;BME280;5107;48.850;8.924;2022-10-15T05:47:14;96234.97;;;14.77;100.00
10135;BME280;5107;48.850;8.924;2022-10-15T05:49:41;96242.72;;;14.78;100.00
10135;BME280;5107;48.850;8.924;2022-10-15T05:52:25;96247.41;;;14.76;100.00
10135;BME280;5107;48.850;8.924;2022-10-15T05:55:16;96244.34;;;14.73;100.00
10135;BME280;5107;48.850;8.924;2022-10-15T05:57:43;96251.28;;;14.74;100.00
10135;BME280;5107;48.850;8.924;2022-10-15T06:00:12;96258.41;;;14.73;100.00
10135;BME280;5107;48.850;8.924;2022-10-15T06:02:40;96263.13;;;14.71;100.00
10135;BME280;5107;48.850;8.924;2022-10-15T06:05:07;96263.13;;;14.71;100.00
10135;BME280;5107;48.850;8.924;2022-10-15T06:07:35;96272.06;;;14.70;100.00
10135;BME280;5107;48.850;8.924;2022-10-15T06:10:04;96271.25;;;14.70;100.00
10135;BME280;5107;48.850;8.924;2022-10-15T06:12:34;96269.81;;;14.67;100.00
10135;BME280;5107;48.850;8.924;2022-10-15T06:15:04;96269.22;;;14.65;100.00
10135;BME280;5107;48.850;8.924;2022-10-15T06:17:31;96283.28;;;14.66;100.00
10135;BME280;5107;48.850;8.924;2022-10-15T06:19:59;96289.38;;;14.66;100.00
10135;BME280;5107;48.850;8.924;2022-10-15T06:22:29;96286.72;;;14.66;100.00
10135;BME280;5107;48.850;8.924;2022-10-15T06:24:56;96285.91;;;14.66;100.00
10135;BME280;5107;48.850;8.924;2022-10-15T06:27:24;96298.34;;;14.65;100.00
10135;BME280;5107;48.850;8.924;2022-10-15T06:29:51;96302.81;;;14.65;100.00
10135;BME280;5107;48.850;8.924;2022-10-15T06:32:18;96307.09;;;14.66;100.00
10135;BME280;5107;48.850;8.924;2022-10-15T06:34:45;96315.88;;;14.66;100.00
10135;BME280;5107;48.850;8.924;2022-10-15T06:37:14;96317.69;;;14.66;100.00
10135;BME280;5107;48.850;8.924;2022-10-15T06:39:41;96312.81;;;14.69;99.55
10135;BME280;5107;48.850;8.924;2022-10-15T06:42:08;96318.72;;;14.71;99.40
10135;BME280;5107;48.850;8.924;2022-10-15T06:44:37;96328.09;;;14.74;99.11
10135;BME280;5107;48.850;8.924;2022-10-15T06:47:04;96330.16;;;14.72;99.37
10135;BME280;5107;48.850;8.924;2022-10-15T06:49:32;96335.00;;;14.75;99.15
10135;BME280;5107;48.850;8.924;2022-10-15T06:51:59;96324.63;;;14.73;99.20
10135;BME280;5107;48.850;8.924;2022-10-15T06:54:27;96335.44;;;14.72;99.19
10135;BME280;5107;48.850;8.924;2022-10-15T06:56:55;96340.50;;;14.73;99.13
10135;BME280;5107;48.850;8.924;2022-10-15T06:59:22;96348.47;;;14.73;99.03
10135;BME280;5107;48.850;8.924;2022-10-15T07:01:49;96345.81;;;14.73;98.12
10135;BME280;5107;48.850;8.924;2022-10-15T07:04:16;96344.59;;;14.76;98.09
10135;BME280;5107;48.850;8.924;2022-10-15T07:06:43;96350.31;;;14.79;97.78
10135;BME280;5107;48.850;8.924;2022-10-15T07:09:10;96356.00;;;14.83;97.30
10135;BME280;5107;48.850;8.924;2022-10-15T07:11:38;96355.78;;;14.85;97.28
10135;BME280;5107;48.850;8.924;2022-10-15T07:14:06;96359.47;;;14.84;96.49
10135;BME280;5107;48.850;8.924;2022-10-15T07:16:33;96366.81;;;14.88;96.75
10135;BME280;5107;48.850;8.924;2022-10-15T07:19:02;96361.28;;;14.90;96.41
10135;BME280;5107;48.850;8.924;2022-10-15T07:21:29;96368.00;;;14.92;96.26
10135;BME280;5107;48.850;8.924;2022-10-15T07:23:56;96365.97;;;14.94;96.18
10135;BME280;5107;48.850;8.924;2022-10-15T07:26:24;96372.47;;;14.98;95.28
10135;BME280;5107;48.850;8.924;2022-10-15T07:28:57;96371.25;;;15.01;94.28
10135;BME280;5107;48.850;8.924;2022-10-15T07:31:25;96380.22;;;15.06;94.43
10135;BME280;5107;48.850;8.924;2022-10-15T07:33:52;96377.38;;;15.08;93.52
10135;BME280;5107;48.850;8.924;2022-10-15T07:36:19;96372.69;;;15.10;93.67
10135;BME280;5107;48.850;8.924;2022-10-15T07:38:46;96378.19;;;15.08;93.75
10135;BME280;5107;48.850;8.924;2022-10-15T07:41:13;96380.63;;;15.10;94.53
10135;BME280;5107;48.850;8.924;2022-10-15T07:43:43;96381.47;;;15.04;93.94
10135;BME280;5107;48.850;8.924;2022-10-15T07:46:12;96386.78;;;15.04;94.57
10135;BME280;5107;48.850;8.924;2022-10-15T07:48:39;96386.97;;;15.02;94.98
10135;BME280;5107;48.850;8.924;2022-10-15T07:51:07;96382.88;;;15.00;95.55
10135;BME280;5107;48.850;8.924;2022-10-15T07:53:33;96387.38;;;14.93;95.05
10135;BME280;5107;48.850;8.924;2022-10-15T07:56:03;96393.06;;;14.90;95.67
10135;BME280;5107;48.850;8.924;2022-10-15T07:58:32;96395.72;;;14.90;95.67
10135;BME280;5107;48.850;8.924;2022-10-15T08:00:59;96398.81;;;14.87;95.47
10135;BME280;5107;48.850;8.924;2022-10-15T08:03:28;96402.88;;;14.89;95.83
10135;BME280;5107;48.850;8.924;2022-10-15T08:05:58;96405.53;;;14.89;96.12
10135;BME280;5107;48.850;8.924;2022-10-15T08:08:25;96400.00;;;14.91;95.14
10135;BME280;5107;48.850;8.924;2022-10-15T08:10:52;96397.97;;;14.93;95.14
10135;BME280;5107;48.850;8.924;2022-10-15T08:13:19;96398.19;;;14.98;95.34
10135;BME280;5107;48.850;8.924;2022-10-15T08:15:49;96400.84;;;14.98;95.50
10135;BME280;5107;48.850;8.924;2022-10-15T08:18:16;96404.50;;;15.03;96.52
10135;BME280;5107;48.850;8.924;2022-10-15T08:20:45;96405.72;;;15.01;95.20
10135;BME280;5107;48.850;8.924;2022-10-15T08:23:15;96411.44;;;15.04;95.66
10135;BME280;5107;48.850;8.924;2022-10-15T08:25:43;96407.78;;;15.05;95.59
10135;BME280;5107;48.850;8.924;2022-10-15T08:28:11;96407.34;;;15.08;95.64
10135;BME280;5107;48.850;8.924;2022-10-15T08:30:38;96405.31;;;15.10;96.21
10135;BME280;5107;48.850;8.924;2022-10-15T08:33:11;96411.63;;;15.09;95.68
10135;BME280;5107;48.850;8.924;2022-10-15T08:35:40;96413.88;;;15.12;96.82
10135;BME280;5107;48.850;8.924;2022-10-15T08:38:10;96412.63;;;15.15;97.53
10135;BME280;5107;48.850;8.924;2022-10-15T08:40:37;96420.81;;;15.13;97.11
10135;BME280;5107;48.850;8.924;2022-10-15T08:43:19;96411.00;;;15.07;96.90
10135;BME280;5107;48.850;8.924;2022-10-15T08:45:50;96421.59;;;15.07;97.02
10135;BME280;5107;48.850;8.924;2022-10-15T08:48:32;96421.59;;;15.07;97.01
10135;BME280;5107;48.850;8.924;2022-10-15T08:51:04;96414.66;;;15.06;96.81
10135;BME280;5107;48.850;8.924;2022-10-15T08:53:39;96417.94;;;15.08;96.83
10135;BME280;5107;48.850;8.924;2022-10-15T08:56:16;96425.50;;;15.11;96.61
10135;BME280;5107;48.850;8.924;2022-10-15T08:58:50;96428.53;;;15.15;97.23
10135;BME280;5107;48.850;8.924;2022-10-15T09:01:25;96429.56;;;15.21;97.52
10135;BME280;5107;48.850;8.924;2022-10-15T09:04:06;96431.78;;;15.24;97.64
10135;BME280;5107;48.850;8.924;2022-10-15T09:06:39;96431.41;;;15.20;98.10
10135;BME280;5107;48.850;8.924;2022-10-15T09:09:16;96432.59;;;15.24;98.95
10135;BME280;5107;48.850;8.924;2022-10-15T09:11:57;96430.56;;;15.26;97.35
10135;BME280;5107;48.850;8.924;2022-10-15T09:14:34;96426.88;;;15.34;97.80
10135;BME280;5107;48.850;8.924;2022-10-15T09:17:11;96430.97;;;15.36;97.68
10135;BME280;5107;48.850;8.924;2022-10-15T09:19:42;96434.84;;;15.47;99.14
10135;BME280;5107;48.850;8.924;2022-10-15T09:22:15;96436.06;;;15.44;98.28
10135;BME280;5107;48.850;8.924;2022-10-15T09:24:45;96447.09;;;15.54;99.57
10135;BME280;5107;48.850;8.924;2022-10-15T09:27:27;96434.41;;;15.63;99.47
10135;BME280;5107;48.850;8.924;2022-10-15T09:30:04;96438.47;;;15.66;98.80
10135;BME280;5107;48.850;8.924;2022-10-15T09:32:36;96444.16;;;15.76;98.43
10135;BME280;5107;48.850;8.924;2022-10-15T09:35:14;96447.41;;;15.84;97.88
10135;BME280;5107;48.850;8.924;2022-10-15T09:37:50;96452.25;;;16.01;98.96
10135;BME280;5107;48.850;8.924;2022-10-15T09:40:36;96456.38;;;15.90;96.61
10135;BME280;5107;48.850;8.924;2022-10-15T09:43:05;96465.56;;;15.87;97.06
10135;BME280;5107;48.850;8.924;2022-10-15T09:45:33;96454.53;;;15.97;97.92
10135;BME280;5107;48.850;8.924;2022-10-15T09:48:00;96448.97;;;16.05;97.60
10135;BME280;5107;48.850;8.924;2022-10-15T09:50:38;96453.69;;;16.41;97.59
10135;BME280;5107;48.850;8.924;2022-10-15T09:53:18;96448.69;;;16.58;94.50
10135;BME280;5107;48.850;8.924;2022-10-15T09:55:55;96446.72;;;16.85;93.21
10135;BME280;5107;48.850;8.924;2022-10-15T09:58:35;96446.25;;;17.19;93.14
10135;BME280;5107;48.850;8.924;2022-10-15T10:01:05;96435.09;;;17.54;91.55
10135;BME280;5107;48.850;8.924;2022-10-15T10:03:35;96443.47;;;17.75;89.50
10135;BME280;5107;48.850;8.924;2022-10-15T10:06:07;96450.06;;;17.91;89.88
10135;BME280;5107;48.850;8.924;2022-10-15T10:08:49;96443.63;;;17.80;86.93
10135;BME280;5107;48.850;8.924;2022-10-15T10:11:19;96450.88;;;17.73;86.12
10135;BME280;5107;48.850;8.924;2022-10-15T10:13:52;96448.66;;;17.89;87.30
10135;BME280;5107;48.850;8.924;2022-10-15T10:16:21;96456.50;;;17.65;85.83
10135;BME280;5107;48.850;8.924;2022-10-15T10:19:12;96462.19;;;17.87;85.80
10135;BME280;5107;48.850;8.924;2022-10-15T10:21:41;96452.34;;;17.69;85.90
10135;BME280;5107;48.850;8.924;2022-10-15T10:24:27;96465.69;;;18.06;87.17
10135;BME280;5107;48.850;8.924;2022-10-15T10:26:57;96458.97;;;18.33;82.73
10135;BME280;5107;48.850;8.924;2022-10-15T10:29:25;96458.72;;;18.53;82.15
10135;BME280;5107;48.850;8.924;2022-10-15T10:31:53;96468.06;;;18.62;78.08
10135;BME280;5107;48.850;8.924;2022-10-15T10:34:30;96466.13;;;18.51;78.57
10135;BME280;5107;48.850;8.924;2022-10-15T10:37:02;96465.59;;;18.31;81.24
10135;BME280;5107;48.850;8.924;2022-10-15T10:39:31;96469.41;;;18.16;78.96
10135;BME280;5107;48.850;8.924;2022-10-15T10:42:04;96470.84;;;18.01;80.09
10135;BME280;5107;48.850;8.924;2022-10-15T10:44:34;96469.38;;;18.05;79.61
10135;BME280;5107;48.850;8.924;2022-10-15T10:47:12;96466.09;;;17.85;79.27
10135;BME280;5107;48.850;8.924;2022-10-15T10:49:42;96468.16;;;17.82;80.51
10135;BME280;5107;48.850;8.924;2022-10-15T10:52:25;96467.69;;;17.74;79.77
10135;BME280;5107;48.850;8.924;2022-10-15T10:54:59;96479.91;;;17.75;81.21
10135;BME280;5107;48.850;8.924;2022-10-15T10:57:38;96475.81;;;17.79;80.91
10135;BME280;5107;48.850;8.924;2022-10-15T11:00:10;96468.56;;;17.86;80.38
10135;BME280;5107;48.850;8.924;2022-10-15T11:02:38;96467.00;;;17.78;78.32
10135;BME280;5107;48.850;8.924;2022-10-15T11:05:08;96468.16;;;17.82;78.99
10135;BME280;5107;48.850;8.924;2022-10-15T11:07:43;96477.34;;;17.87;79.02
10135;BME280;5107;48.850;8.924;2022-10-15T11:10:20;96472.63;;;17.70;78.74
10135;BME280;5107;48.850;8.924;2022-10-15T11:13:03;96460.06;;;17.53;78.85
10135;BME280;5107;48.850;8.924;2022-10-15T11:15:43;96466.19;;;17.53;79.20
10135;BME280;5107;48.850;8.924;2022-10-15T11:18:38;96463.31;;;17.55;78.85
10135;BME280;5107;48.850;8.924;2022-10-15T11:21:20;96462.09;;;17.57;78.66
10135;BME280;5107;48.850;8.924;2022-10-15T11:24:09;96460.19;;;17.64;78.63
10135;BME280;5107;48.850;8.924;2022-10-15T11:26:54;96462.09;;;17.57;76.86
10135;BME280;5107;48.850;8.924;2022-10-15T11:29:40;96450.00;;;17.98;79.33
10135;BME280;5107;48.850;8.924;2022-10-15T11:32:26;96441.41;;;17.96;76.27
10135;BME280;5107;48.850;8.924;2022-10-15T11:35:20;96440.56;;;18.32;73.73
10135;BME280;5107;48.850;8.924;2022-10-15T11:38:11;96434.72;;;18.71;73.88
10135;BME280;5107;48.850;8.924;2022-10-15T11:40:57;96426.09;;;18.58;72.72
10135;BME280;5107;48.850;8.924;2022-10-15T11:43:43;96446.44;;;18.22;74.54
10135;BME280;5107;48.850;8.924;2022-10-15T11:46:19;96437.34;;;17.93;75.58
10135;BME280;5107;48.850;8.924;2022-10-15T11:49:09;96428.22;;;17.82;75.51
10135;BME280;5107;48.850;8.924;2022-10-15T11:51:58;96436.69;;;17.79;77.48
10135;BME280;5107;48.850;8.924;2022-10-15T11:54:34;96435.78;;;17.67;76.61
10135;BME280;5107;48.850;8.924;2022-10-15T11:57:04;96433.78;;;17.63;77.22
10135;BME280;5107;48.850;8.924;2022-10-15T11:59:42;96434.25;;;17.53;77.45
10135;BME280;5107;48.850;8.924;2022-10-15T12:02:18;96436.78;;;17.48;77.65
10135;BME280;5107;48.850;8.924;2022-10-15T12:04:52;96425.75;;;17.44;77.96
10135;BME280;5107;48.850;8.924;2022-10-15T12:07:24;96430.97;;;17.33;77.42
10135;BME280;5107;48.850;8.924;2022-10-15T12:10:00;96413.22;;;17.27;77.24
10135;BME280;5107;48.850;8.924;2022-10-15T12:12:36;96422.25;;;17.26;78.44
10135;BME280;5107;48.850;8.924;2022-10-15T12:15:23;96423.13;;;17.20;78.31
10135;BME280;5107;48.850;8.924;2022-10-15T12:18:00;96431.78;;;17.15;78.76
10135;BME280;5107;48.850;8.924;2022-10-15T12:20:29;96436.31;;;17.08;79.92
10135;BME280;5107;48.850;8.924;2022-10-15T12:22:59;96428.88;;;16.92;81.11
10135;BME280;5107;48.850;8.924;2022-10-15T12:25:44;96426.31;;;16.79;82.83
10135;BME280;5107;48.850;8.924;2022-10-15T12:28:16;96421.06;;;16.72;80.74
10135;BME280;5107;48.850;8.924;2022-10-15T12:30:55;96416.97;;;16.69;81.01
10135;BME280;5107;48.850;8.924;2022-10-15T12:33:32;96414.16;;;16.64;82.33
10135;BME280;5107;48.850;8.924;2022-10-15T12:36:02;96403.13;;;16.61;83.06
10135;BME280;5107;48.850;8.924;2022-10-15T12:38:36;96402.72;;;16.57;81.63
10135;BME280;5107;48.850;8.924;2022-10-15T12:41:08;96395.19;;;16.54;81.83
10135;BME280;5107;48.850;8.924;2022-10-15T12:43:40;96401.09;;;16.56;83.07
10135;BME280;5107;48.850;8.924;2022-10-15T12:46:10;96391.72;;;16.54;82.03
10135;BME280;5107;48.850;8.924;2022-10-15T12:48:42;96389.28;;;16.52;81.72
10135;BME280;5107;48.850;8.924;2022-10-15T12:51:37;96393.56;;;16.53;83.26
10135;BME280;5107;48.850;8.924;2022-10-15T12:54:37;96405.22;;;16.52;81.94
10135;BME280;5107;48.850;8.924;2022-10-15T13:00:41;96403.16;;;16.54;81.08
10135;BME280;5107;48.850;8.924;2022-10-15T13:03:22;96400.28;;;16.56;80.56
10135;BME280;5107;48.850;8.924;2022-10-15T13:05:51;96400.88;;;16.58;82.69
10135;BME280;5107;48.850;8.924;2022-10-15T13:08:28;96396.22;;;16.53;81.90
10135;BME280;5107;48.850;8.924;2022-10-15T13:10:58;96401.53;;;16.53;81.96
10135;BME280;5107;48.850;8.924;2022-10-15T13:13:29;96412.56;;;16.57;81.41
10135;BME280;5107;48.850;8.924;2022-10-15T13:16:01;96416.81;;;16.58;82.08
10135;BME280;5107;48.850;8.924;2022-10-15T13:18:32;96412.16;;;16.53;83.00
10135;BME280;5107;48.850;8.924;2022-10-15T13:21:01;96413.03;;;16.41;83.13
10135;BME280;5107;48.850;8.924;2022-10-15T13:23:30;96409.03;;;16.31;83.96
10135;BME280;5107;48.850;8.924;2022-10-15T13:26:12;96415.16;;;16.25;84.12
10135;BME280;5107;48.850;8.924;2022-10-15T13:28:43;96411.13;;;16.23;84.74
10135;BME280;5107;48.850;8.924;2022-10-15T13:31:20;96405.41;;;16.19;85.02
10135;BME280;5107;48.850;8.924;2022-10-15T13:33:50;96405.41;;;16.19;85.74
10135;BME280;5107;48.850;8.924;2022-10-15T13:36:23;96400.72;;;16.21;86.74
10135;BME280;5107;48.850;8.924;2022-10-15T13:38:56;96397.84;;;16.23;86.54
10135;BME280;5107;48.850;8.924;2022-10-15T13:41:27;96400.72;;;16.21;86.50